Issaquah, WA

9:05 PM PDT on March 31, 2015 (GMT -0700)
Eastgate (Hills south of I-90 / 148th Ave Jct) | | Change Station
CLOSE
Current Station
Personal Weather Station
Location: Bellevue, WA
Elevation: 976 ft
Nearby Weather Stations

Elev 976 ft 47.55 °N, 122.14 °W | Updated 14 seconds ago

Rain
Rain
39.2 °F
Feels Like 39 °F
N
0.0
Wind Variable Wind from NNW
Gusts 2.0 mph

Today
High -- | Low -- °F
--% Chance of Precip.
Yesterday
High -- | Low -- °F
Precip. -- in
6:49 AM 7:36 PM
Waxing Gibbous, 90% visible
Pressure 30.19 in
Visibility 10.0 miles
Clouds Overcast 2700 ft
Windchill 39 °F
Dew Point 36 °F
Humidity 89%
Rainfall in
Snow Depth Not available.
UV 0 out of 12
Pollen 3.70 out of 12
Air Quality Not available.
Flu Activity Not available.
METAR KRNT 010353Z AUTO 05006KT 10SM OVC027 08/04 A3017 RMK AO2 SLP222 T00780044

More Conditions Fewer Conditions

Pressure 30.19 in
Visibility 10.0 miles
Clouds Overcast 2700 ft
Windchill 39 °F
Dew Point 36 °F
Humidity 89%
Rainfall in
Snow Depth Not available.
UV 0 out of 12
Pollen 3.70 out of 12
Air Quality Not available.
Flu Activity Not available.
METAR KRNT 010353Z AUTO 05006KT 10SM OVC027 08/04 A3017 RMK AO2 SLP222 T00780044

More Conditions Fewer Conditions

10-Day Weather Forecast

Almanac

Astronomy

Mar. 31, 2015 Rise Set
Actual Time
Civil Twilight
Nautical Twilight
Astronomical Twilight
Moon
Length of Visible Light
Length of Day
Tomorrow will be .
, % of the Moon is Illuminated

Today's Extremes

State Highs State Lows

Community

WunderPhotos

Upload Photos

1,809,904 photos uploaded!

WunderBlogs® & News

Nearby

Air Quality

  Air Quality AQ Index Pollutant
Not available.

Snow Depth

Station Depth Elevation

Earthquake Activity

City Distance Mag. Time & Date
Minimum magnitude displayed is 2.5.

Coastal Water Temperatures

Place Temperature

Stations

Nearby Weather Stations

Station Location Temp. Windchill Dew Point Humidity Wind Precip. Elev Updated Type